Time;durP1;ratioP1;P1;durP2;ratioP2;P2;SDS_P1;SDS_P2;PMS_P1;PMS_P2;Temp;Humidity;BMP_temperature;BMP_pressure;BME280_temperature;BME280_humidity;BME280_pressure;Samples;Min_cycle;Max_cycle;Signal;HPM_P1;HPM_P2
2022/03/04 00:02:06;;;;;;;34.17;15.52;;;6.70;87.20;;;;;;5012884;28;20091;-70
2022/03/04 00:04:37;;;;;;;30.88;15.20;;;6.60;87.60;;;;;;5013186;28;20033;-69
2022/03/04 00:07:06;;;;;;;31.10;15.30;;;6.70;87.90;;;;;;5012953;28;20045;-69
2022/03/04 00:09:33;;;;;;;26.00;14.80;;;6.60;87.70;;;;;;5011605;28;20088;-70
2022/03/04 00:12:00;;;;;;;26.77;15.20;;;6.40;87.80;;;;;;5012922;28;20034;-71
2022/03/04 00:14:25;;;;;;;24.77;14.60;;;6.40;89.10;;;;;;5013349;28;20508;-69
2022/03/04 00:16:53;;;;;;;27.10;14.73;;;6.50;88.60;;;;;;5013111;28;20061;-69
2022/03/04 00:19:19;;;;;;;23.88;14.30;;;6.40;88.50;;;;;;5011739;28;20026;-69
2022/03/04 00:21:48;;;;;;;22.73;13.50;;;6.40;88.80;;;;;;5013186;28;20026;-69
2022/03/04 00:24:16;;;;;;;23.65;13.95;;;6.40;89.10;;;;;;5012846;28;20052;-71
2022/03/04 00:26:43;;;;;;;25.70;14.05;;;6.50;88.70;;;;;;5012860;28;20475;-69
2022/03/04 00:29:09;;;;;;;22.08;14.20;;;6.50;88.50;;;;;;5011657;28;20549;-69
2022/03/04 00:31:36;;;;;;;26.40;13.57;;;6.40;88.80;;;;;;5013117;28;20479;-71
2022/03/04 00:34:06;;;;;;;23.20;14.55;;;6.40;88.10;;;;;;5012679;28;20026;-76
2022/03/04 00:36:33;;;;;;;23.20;14.77;;;6.30;87.90;;;;;;5012886;28;20049;-74
2022/03/04 00:38:59;;;;;;;26.17;14.45;;;6.30;88.40;;;;;;5012874;28;20096;-76
2022/03/04 00:41:25;;;;;;;25.50;14.75;;;6.20;88.60;;;;;;5012937;28;20416;-71
2022/03/04 00:43:52;;;;;;;22.25;14.00;;;6.20;88.90;;;;;;5012877;28;20034;-73
2022/03/04 00:46:18;;;;;;;27.67;14.93;;;6.10;88.70;;;;;;5012406;28;20569;-76
2022/03/04 00:48:45;;;;;;;28.80;14.45;;;6.10;88.90;;;;;;5011625;28;20030;-75
2022/03/04 00:51:12;;;;;;;25.90;13.52;;;6.20;87.90;;;;;;5012453;28;20026;-75
2022/03/04 00:53:39;;;;;;;22.70;13.63;;;5.90;89.40;;;;;;5012632;28;20117;-76
2022/03/04 00:56:09;;;;;;;24.33;15.15;;;5.90;88.50;;;;;;5012609;28;20037;-75
2022/03/04 00:58:35;;;;;;;25.00;14.40;;;6.00;88.90;;;;;;5012627;28;20033;-76
2022/03/04 01:01:02;;;;;;;25.02;13.32;;;6.10;88.10;;;;;;5012604;28;20112;-76
2022/03/04 01:03:27;;;;;;;26.38;13.40;;;6.10;88.20;;;;;;5012471;28;20106;-75
2022/03/04 01:05:54;;;;;;;20.85;13.45;;;6.10;88.30;;;;;;5011072;28;20554;-75
2022/03/04 01:08:20;;;;;;;25.55;13.90;;;6.00;88.10;;;;;;5015656;28;20030;-75
2022/03/04 01:10:46;;;;;;;29.75;14.85;;;5.90;89.10;;;;;;5015944;28;20045;-76
2022/03/04 01:13:12;;;;;;;25.10;14.70;;;5.90;89.40;;;;;;5016241;28;20022;-75
2022/03/04 01:15:38;;;;;;;26.77;14.40;;;5.90;89.30;;;;;;5016190;28;20038;-75
2022/03/04 01:18:04;;;;;;;29.95;15.13;;;6.00;89.10;;;;;;5031266;28;20108;-76
2022/03/04 01:20:31;;;;;;;27.80;14.68;;;5.90;89.30;;;;;;5015766;28;20022;-76
2022/03/04 01:22:57;;;;;;;23.85;12.80;;;5.90;88.80;;;;;;5014715;28;20022;-74
2022/03/04 01:25:23;;;;;;;21.08;13.45;;;5.90;89.60;;;;;;5015865;28;20038;-76
2022/03/04 01:27:49;;;;;;;26.55;14.95;;;5.90;89.30;;;;;;5015900;28;20467;-76
2022/03/04 01:30:15;;;;;;;30.65;15.23;;;5.80;89.30;;;;;;5015663;28;20029;-72
2022/03/04 01:32:41;;;;;;;28.30;13.98;;;5.70;89.20;;;;;;5015783;28;20537;-76
2022/03/04 01:35:08;;;;;;;22.17;12.80;;;5.80;89.90;;;;;;5015525;28;20025;-73
2022/03/04 01:37:34;;;;;;;26.88;14.43;;;5.70;89.70;;;;;;5015649;28;20104;-74
2022/03/04 01:40:01;;;;;;;25.63;13.45;;;5.70;89.70;;;;;;5015761;28;20458;-76
2022/03/04 01:42:27;;;;;;;25.55;12.85;;;5.70;90.00;;;;;;5015494;28;20037;-76
2022/03/04 01:44:53;;;;;;;32.45;15.27;;;5.70;89.50;;;;;;5015550;28;20045;-73
2022/03/04 01:47:18;;;;;;;24.60;15.15;;;5.80;89.80;;;;;;5015487;28;20458;-75
2022/03/04 01:49:44;;;;;;;22.95;14.77;;;5.90;89.60;;;;;;5014078;28;20041;-73
2022/03/04 01:52:10;;;;;;;28.08;15.20;;;5.90;89.40;;;;;;5015272;28;20030;-76
2022/03/04 01:54:37;;;;;;;23.40;14.85;;;5.80;89.60;;;;;;5015600;28;20022;-76
2022/03/04 01:57:03;;;;;;;26.60;14.63;;;5.80;89.80;;;;;;5015260;28;20022;-75
2022/03/04 01:59:29;;;;;;;29.08;14.57;;;5.70;89.80;;;;;;5015466;28;20037;-75
2022/03/04 02:01:55;;;;;;;25.08;15.68;;;5.60;90.00;;;;;;5015185;28;20026;-75
2022/03/04 02:04:22;;;;;;;26.10;14.95;;;5.60;90.10;;;;;;5013993;28;20112;-76
2022/03/04 02:06:48;;;;;;;27.08;15.18;;;5.70;89.80;;;;;;4996076;28;20487;-76
2022/03/04 02:09:15;;;;;;;27.65;15.30;;;5.50;90.00;;;;;;5005159;28;20022;-75
2022/03/04 02:11:43;;;;;;;26.38;14.82;;;5.50;90.00;;;;;;4996556;28;20030;-73
2022/03/04 02:14:10;;;;;;;28.02;14.90;;;5.50;90.20;;;;;;4995267;28;20030;-73
2022/03/04 02:16:44;;;;;;;23.85;14.93;;;5.40;90.00;;;;;;4995421;28;20022;-75
2022/03/04 02:19:10;;;;;;;27.90;15.05;;;5.40;89.80;;;;;;4995045;28;20042;-68
2022/03/04 02:21:36;;;;;;;26.95;15.13;;;5.40;90.00;;;;;;4995303;28;20028;-69
2022/03/04 02:24:02;;;;;;;28.58;16.13;;;5.40;89.70;;;;;;4995429;28;20386;-69
2022/03/04 02:26:28;;;;;;;25.38;15.27;;;5.40;90.30;;;;;;4996255;28;20052;-70
2022/03/04 02:28:54;;;;;;;23.75;14.52;;;5.50;90.00;;;;;;5014801;28;20025;-70
2022/03/04 02:31:21;;;;;;;27.92;16.10;;;5.50;90.30;;;;;;5013516;28;20053;-69
2022/03/04 02:33:49;;;;;;;26.83;15.75;;;5.50;90.20;;;;;;5014442;28;20105;-69
2022/03/04 02:36:15;;;;;;;26.65;14.30;;;5.40;90.00;;;;;;5014461;28;20046;-69
2022/03/04 02:38:41;;;;;;;29.45;16.27;;;5.40;90.20;;;;;;5013400;28;20036;-70
2022/03/04 02:41:07;;;;;;;29.52;15.10;;;5.40;90.30;;;;;;5014505;28;20065;-69
2022/03/04 02:43:34;;;;;;;25.52;15.45;;;5.40;90.40;;;;;;5014371;28;20061;-69
2022/03/04 02:46:00;;;;;;;25.05;15.85;;;5.30;90.20;;;;;;5014424;28;20486;-69
2022/03/04 02:48:27;;;;;;;22.95;14.98;;;5.30;90.40;;;;;;5014664;28;20073;-70
2022/03/04 02:50:55;;;;;;;25.65;15.50;;;5.30;90.40;;;;;;5014555;28;20030;-69
2022/03/04 02:53:21;;;;;;;22.88;14.73;;;5.20;90.20;;;;;;5014281;28;20080;-69
2022/03/04 02:55:46;;;;;;;23.85;14.57;;;5.10;90.30;;;;;;5014227;28;20033;-69
2022/03/04 02:58:12;;;;;;;30.02;15.40;;;5.10;90.30;;;;;;5014183;28;20036;-69
2022/03/04 03:00:38;;;;;;;25.65;16.08;;;5.30;90.20;;;;;;5012827;28;20036;-69
2022/03/04 03:03:04;;;;;;;25.73;14.13;;;5.20;90.00;;;;;;5014091;28;20029;-69
2022/03/04 03:05:29;;;;;;;32.17;15.40;;;5.00;90.20;;;;;;5013879;28;20052;-69
2022/03/04 03:07:55;;;;;;;30.13;14.68;;;4.80;90.40;;;;;;5012666;28;20034;-69
2022/03/04 03:10:21;;;;;;;24.58;13.95;;;4.70;90.50;;;;;;5012698;28;20061;-69
2022/03/04 03:12:47;;;;;;;24.52;14.70;;;4.70;90.50;;;;;;5014210;28;20029;-69
2022/03/04 03:15:15;;;;;;;31.25;15.57;;;4.70;90.60;;;;;;5013663;28;20386;-70
2022/03/04 03:17:40;;;;;;;28.67;15.27;;;4.80;90.50;;;;;;5012521;28;20045;-69
2022/03/04 03:20:07;;;;;;;25.95;15.23;;;4.70;90.70;;;;;;5014354;28;20026;-76
2022/03/04 03:22:33;;;;;;;26.23;14.43;;;4.70;90.80;;;;;;5013864;28;20383;-75
2022/03/04 03:24:59;;;;;;;27.92;15.88;;;4.60;90.70;;;;;;5013833;28;20038;-75
2022/03/04 03:27:25;;;;;;;27.10;14.82;;;4.70;90.90;;;;;;5013501;28;20022;-76
2022/03/04 03:29:50;;;;;;;28.10;14.57;;;4.70;90.80;;;;;;5013060;28;20505;-76
2022/03/04 03:32:16;;;;;;;30.35;14.73;;;4.70;90.80;;;;;;5013559;28;20034;-75
2022/03/04 03:34:42;;;;;;;26.35;15.00;;;4.80;90.60;;;;;;5013525;28;20029;-75
2022/03/04 03:37:09;;;;;;;23.30;14.63;;;4.80;90.80;;;;;;5012319;28;20034;-76
2022/03/04 03:39:36;;;;;;;26.73;14.75;;;4.90;91.10;;;;;;5013396;28;20470;-76
2022/03/04 03:42:03;;;;;;;24.02;15.10;;;4.80;90.80;;;;;;5013594;28;20037;-76
2022/03/04 03:44:29;;;;;;;26.63;15.35;;;4.90;91.10;;;;;;5013431;28;20041;-76
2022/03/04 03:46:56;;;;;;;24.17;15.07;;;4.80;90.90;;;;;;5013436;28;20080;-75
2022/03/04 03:49:22;;;;;;;24.73;14.98;;;4.70;91.00;;;;;;5013405;28;20030;-75
2022/03/04 03:51:48;;;;;;;28.65;15.27;;;4.60;91.40;;;;;;5013454;28;20422;-75
2022/03/04 03:54:14;;;;;;;25.02;15.55;;;4.70;91.70;;;;;;5013069;28;20030;-73
2022/03/04 03:56:40;;;;;;;28.33;16.55;;;4.80;91.40;;;;;;5013487;28;20072;-74
2022/03/04 03:59:06;;;;;;;29.70;15.32;;;4.80;91.10;;;;;;5012897;28;20038;-73
2022/03/04 04:01:32;;;;;;;29.02;16.08;;;4.70;91.40;;;;;;5012003;28;20028;-72
2022/03/04 04:03:59;;;;;;;28.40;16.33;;;4.80;91.60;;;;;;5013051;28;20088;-72
2022/03/04 04:06:25;;;;;;;23.40;15.25;;;4.80;91.40;;;;;;5013093;28;20046;-70
2022/03/04 04:08:50;;;;;;;23.90;15.07;;;4.70;91.50;;;;;;5012516;28;20040;-69
2022/03/04 04:11:16;;;;;;;30.40;15.93;;;4.70;91.80;;;;;;5012970;28;20026;-72
2022/03/04 04:13:42;;;;;;;29.55;15.82;;;4.60;91.70;;;;;;5012478;28;20037;-72
2022/03/04 04:16:08;;;;;;;24.88;15.82;;;4.50;91.90;;;;;;5013013;28;20029;-71
2022/03/04 04:18:33;;;;;;;27.17;15.48;;;4.50;92.10;;;;;;5013051;28;20398;-72
2022/03/04 04:20:59;;;;;;;26.23;15.05;;;4.50;92.20;;;;;;5013023;28;20068;-74
2022/03/04 04:23:25;;;;;;;29.98;14.10;;;4.50;92.40;;;;;;5012737;28;20030;-70
2022/03/04 04:25:51;;;;;;;27.15;14.98;;;4.50;92.40;;;;;;5012948;28;20068;-70
2022/03/04 04:28:17;;;;;;;29.25;16.48;;;4.50;92.20;;;;;;5011262;28;20072;-71
2022/03/04 04:30:43;;;;;;;25.20;15.98;;;4.50;92.10;;;;;;4995209;28;20483;-72
2022/03/04 04:33:08;;;;;;;29.50;14.85;;;4.50;92.10;;;;;;5012893;28;20017;-72
2022/03/04 04:35:34;;;;;;;25.85;15.52;;;4.50;92.20;;;;;;5012723;28;20034;-69
2022/03/04 04:38:00;;;;;;;31.90;16.98;;;4.30;92.20;;;;;;5012780;28;20053;-69
2022/03/04 04:40:25;;;;;;;27.77;15.98;;;4.20;92.50;;;;;;5012654;28;20038;-69
2022/03/04 04:42:52;;;;;;;31.42;16.17;;;4.20;92.80;;;;;;5015235;28;20065;-70
2022/03/04 04:45:17;;;;;;;27.45;16.25;;;4.10;93.10;;;;;;5016898;28;20037;-69
2022/03/04 04:47:43;;;;;;;28.02;16.42;;;4.10;93.20;;;;;;5016792;28;20033;-69
2022/03/04 04:50:09;;;;;;;33.50;18.60;;;4.10;93.50;;;;;;5016502;28;20026;-69
2022/03/04 04:52:35;;;;;;;39.70;21.45;;;4.10;93.40;;;;;;5015323;28;20058;-69
2022/03/04 04:55:01;;;;;;;43.22;22.60;;;4.00;93.50;;;;;;5016498;28;20427;-70
2022/03/04 04:57:27;;;;;;;39.80;21.10;;;4.10;94.00;;;;;;5016278;28;20105;-70
2022/03/04 04:59:53;;;;;;;39.03;18.48;;;4.00;94.00;;;;;;5016535;28;20030;-69
2022/03/04 05:02:19;;;;;;;37.05;20.30;;;3.90;94.10;;;;;;5016748;28;20037;-69
2022/03/04 05:04:45;;;;;;;38.88;20.60;;;3.90;94.50;;;;;;5016302;28;20034;-68
2022/03/04 05:07:10;;;;;;;32.70;19.30;;;3.70;94.50;;;;;;5015868;28;20095;-68
2022/03/04 05:09:36;;;;;;;30.15;18.52;;;3.70;94.90;;;;;;5015930;28;20030;-70
2022/03/04 05:12:02;;;;;;;31.77;17.10;;;3.90;94.90;;;;;;5015937;28;20038;-69
2022/03/04 05:14:28;;;;;;;28.35;16.67;;;3.80;94.70;;;;;;5016198;28;20030;-69
2022/03/04 05:16:54;;;;;;;26.30;15.45;;;3.70;95.00;;;;;;5015982;28;20104;-70
2022/03/04 05:19:19;;;;;;;37.63;17.92;;;3.70;95.40;;;;;;5016341;28;20030;-69
2022/03/04 05:21:45;;;;;;;30.45;17.88;;;3.80;95.70;;;;;;5015799;28;20034;-70
2022/03/04 05:24:12;;;;;;;31.08;16.40;;;3.80;95.40;;;;;;5016066;28;20026;-70
2022/03/04 05:26:40;;;;;;;29.00;17.27;;;3.70;95.40;;;;;;5015498;28;20127;-70
2022/03/04 05:29:09;;;;;;;29.63;17.15;;;3.70;95.80;;;;;;5015977;28;20061;-69
2022/03/04 05:31:36;;;;;;;30.73;18.20;;;3.60;95.90;;;;;;5015891;28;20485;-69
2022/03/04 05:34:01;;;;;;;28.08;16.20;;;3.70;96.60;;;;;;5015786;28;20038;-69
2022/03/04 05:36:27;;;;;;;30.60;16.05;;;3.70;96.60;;;;;;5015666;28;20092;-69
2022/03/04 05:38:53;;;;;;;26.27;16.50;;;3.80;96.30;;;;;;5015716;28;20036;-69
2022/03/04 05:41:20;;;;;;;28.38;15.73;;;3.70;96.50;;;;;;5015444;28;20085;-69
2022/03/04 05:43:47;;;;;;;29.52;16.90;;;3.70;96.50;;;;;;5015752;28;20117;-69
2022/03/04 05:46:13;;;;;;;28.35;16.25;;;3.70;96.50;;;;;;5014235;28;20418;-69
2022/03/04 05:48:39;;;;;;;36.22;18.40;;;3.80;96.20;;;;;;5015614;28;20053;-69
2022/03/04 05:51:06;;;;;;;27.52;16.27;;;3.70;96.40;;;;;;5015438;28;20026;-69
2022/03/04 05:53:33;;;;;;;38.75;17.25;;;3.70;96.40;;;;;;5014928;28;20057;-69
2022/03/04 05:56:05;;;;;;;33.35;16.85;;;3.60;96.50;;;;;;5015111;28;20025;-69
2022/03/04 05:58:31;;;;;;;;;;;3.40;97.00;;;;;;5016034;28;20036;-68
2022/03/04 06:00:57;;;;;;;38.67;16.95;;;3.50;97.20;;;;;;5015336;28;19910;-69
2022/03/04 06:03:23;;;;;;;33.10;17.08;;;3.50;97.40;;;;;;5015499;28;20030;-76
2022/03/04 06:05:48;;;;;;;26.98;16.67;;;3.50;97.60;;;;;;5015252;28;20479;-76
2022/03/04 06:08:14;;;;;;;40.55;17.27;;;3.50;97.50;;;;;;5014018;28;20029;-75
2022/03/04 06:10:40;;;;;;;33.97;17.08;;;3.50;97.50;;;;;;5014627;28;20080;-75
2022/03/04 06:13:07;;;;;;;39.50;17.50;;;3.50;97.50;;;;;;5015036;28;20097;-76
2022/03/04 06:15:33;;;;;;;37.90;14.93;;;3.40;98.10;;;;;;5015121;28;20065;-75
2022/03/04 06:17:59;;;;;;;34.35;15.40;;;3.40;98.20;;;;;;5014898;28;20033;-74
2022/03/04 06:20:25;;;;;;;30.58;17.08;;;3.40;98.10;;;;;;5014955;28;20033;-75
2022/03/04 06:22:50;;;;;;;31.08;15.95;;;3.50;98.10;;;;;;5014883;28;20471;-76
2022/03/04 06:25:16;;;;;;;31.15;15.98;;;3.50;98.30;;;;;;5014397;28;20022;-75
2022/03/04 06:27:59;;;;;;;30.08;15.93;;;3.50;98.20;;;;;;5014337;28;20381;-74
2022/03/04 06:30:27;;;;;;;38.90;18.00;;;3.50;98.70;;;;;;5014573;28;20034;-74
2022/03/04 06:35:39;;;;;;;31.65;15.15;;;3.30;99.90;;;;;;5014460;28;20087;-76
2022/03/04 06:38:05;;;;;;;40.08;16.05;;;3.20;99.90;;;;;;5014341;28;20375;-74
2022/03/04 06:40:31;;;;;;;35.13;15.50;;;3.40;99.90;;;;;;5014696;28;20034;-75
2022/03/04 06:42:57;;;;;;;28.58;15.65;;;3.30;99.90;;;;;;5014093;28;20034;-75
2022/03/04 06:45:22;;;;;;;32.08;15.50;;;3.30;99.80;;;;;;5014395;28;20046;-75
2022/03/04 06:47:48;;;;;;;29.85;15.48;;;3.40;99.60;;;;;;5014327;28;20022;-75
2022/03/04 06:50:14;;;;;;;27.13;15.93;;;3.30;99.80;;;;;;5014453;28;20075;-69
2022/03/04 06:52:40;;;;;;;29.17;15.98;;;3.30;99.80;;;;;;5013854;28;20033;-69
2022/03/04 06:55:06;;;;;;;27.48;15.93;;;3.40;99.40;;;;;;5014293;28;20038;-69
2022/03/04 06:57:32;;;;;;;27.63;15.88;;;3.40;99.20;;;;;;5014398;28;20033;-70
2022/03/04 06:59:57;;;;;;;34.22;16.85;;;3.40;99.60;;;;;;5014200;28;20038;-68
2022/03/04 07:02:23;;;;;;;29.63;15.32;;;3.40;99.20;;;;;;5014077;28;20025;-69
2022/03/04 07:04:49;;;;;;;31.77;16.58;;;3.50;98.90;;;;;;5012989;28;20602;-69
2022/03/04 07:07:15;;;;;;;36.40;16.08;;;3.50;98.60;;;;;;5013926;28;20042;-69
2022/03/04 07:09:41;;;;;;;30.23;15.57;;;3.50;98.80;;;;;;5012909;28;20492;-69
2022/03/04 07:12:07;;;;;;;34.60;17.40;;;3.60;98.90;;;;;;4994273;28;20113;-68
2022/03/04 07:14:33;;;;;;;27.40;14.90;;;3.60;99.40;;;;;;4994338;28;20064;-69
2022/03/04 07:16:59;;;;;;;24.50;15.35;;;3.70;99.20;;;;;;4994228;28;20019;-69
2022/03/04 07:19:24;;;;;;;38.10;15.73;;;3.70;98.90;;;;;;4994302;28;20497;-69
2022/03/04 07:21:50;;;;;;;27.92;17.30;;;3.80;98.60;;;;;;4994087;28;20383;-69
2022/03/04 07:24:16;;;;;;;30.00;16.75;;;3.90;98.80;;;;;;4993999;28;20026;-69
2022/03/04 07:26:42;;;;;;;26.10;15.00;;;4.00;98.50;;;;;;4996941;28;20045;-69
2022/03/04 07:29:08;;;;;;;29.65;15.77;;;4.10;97.90;;;;;;5013551;28;20018;-69
2022/03/04 07:31:34;;;;;;;30.67;16.55;;;4.10;98.20;;;;;;5013736;28;20038;-69
2022/03/04 07:33:59;;;;;;;33.97;16.15;;;4.00;98.60;;;;;;5013312;28;20103;-69
2022/03/04 07:36:25;;;;;;;27.98;15.63;;;4.00;98.50;;;;;;5010816;28;20045;-70
2022/03/04 07:38:55;;;;;;;35.05;15.98;;;4.10;98.20;;;;;;5012075;28;20084;-69
2022/03/04 07:41:21;;;;;;;29.58;16.77;;;4.30;98.10;;;;;;5013045;28;20441;-69
2022/03/04 07:43:47;;;;;;;29.95;15.88;;;4.30;97.80;;;;;;5011405;28;20029;-71
2022/03/04 07:46:13;;;;;;;33.33;16.70;;;4.40;98.00;;;;;;5001379;28;20080;-72
2022/03/04 07:48:38;;;;;;;31.92;16.23;;;4.40;97.90;;;;;;5002578;28;20081;-70
2022/03/04 07:51:05;;;;;;;28.35;16.15;;;4.40;97.40;;;;;;4998056;28;20018;-69
2022/03/04 07:53:31;;;;;;;30.27;16.17;;;4.40;97.80;;;;;;5000059;28;20533;-69
2022/03/04 07:55:56;;;;;;;28.35;16.65;;;4.60;97.60;;;;;;5012548;28;20038;-68
2022/03/04 07:58:22;;;;;;;30.15;16.58;;;4.70;97.80;;;;;;4996958;28;20085;-70
2022/03/04 08:00:48;;;;;;;38.22;16.35;;;4.80;97.40;;;;;;5001878;28;20478;-69
2022/03/04 08:03:14;;;;;;;32.22;16.85;;;4.90;97.10;;;;;;5005037;28;20038;-70
2022/03/04 08:05:40;;;;;;;36.17;16.98;;;5.00;96.80;;;;;;5000893;28;20057;-69
2022/03/04 08:08:06;;;;;;;33.88;16.48;;;5.10;96.60;;;;;;5000535;28;20029;-69
2022/03/04 08:10:32;;;;;;;31.48;15.25;;;5.10;96.70;;;;;;5008540;28;20096;-69
2022/03/04 08:12:58;;;;;;;28.00;15.43;;;5.20;95.70;;;;;;4999625;28;20031;-69
2022/03/04 08:15:24;;;;;;;29.27;15.50;;;5.30;95.80;;;;;;4996050;28;20050;-69
2022/03/04 08:17:50;;;;;;;31.23;15.68;;;5.40;94.80;;;;;;5004396;28;20064;-69
2022/03/04 08:20:16;;;;;;;30.48;15.98;;;5.60;94.60;;;;;;5006752;28;20491;-69
2022/03/04 08:22:41;;;;;;;26.92;15.48;;;5.60;94.30;;;;;;4999231;28;20072;-69
2022/03/04 08:25:08;;;;;;;30.10;15.73;;;5.70;94.10;;;;;;5006935;28;20068;-69
2022/03/04 08:27:41;;;;;;;28.75;16.15;;;6.00;94.40;;;;;;5000066;28;20466;-69
2022/03/04 08:30:08;;;;;;;28.33;16.25;;;6.10;94.30;;;;;;5003490;28;20037;-69
2022/03/04 08:32:35;;;;;;;28.92;15.02;;;6.20;94.10;;;;;;5002310;28;20105;-70
2022/03/04 08:35:01;;;;;;;31.90;15.05;;;6.50;93.60;;;;;;5003855;28;20054;-69
2022/03/04 08:37:28;;;;;;;32.72;15.45;;;6.40;93.20;;;;;;4998863;28;20049;-70
2022/03/04 08:39:54;;;;;;;29.17;14.60;;;6.50;93.80;;;;;;5003896;28;20101;-69
2022/03/04 08:42:20;;;;;;;26.98;16.13;;;6.60;93.40;;;;;;5004976;28;20061;-69
2022/03/04 08:44:46;;;;;;;30.70;15.38;;;6.70;92.90;;;;;;5010133;28;20441;-69
2022/03/04 08:47:12;;;;;;;29.25;16.77;;;6.90;93.60;;;;;;5008156;28;20031;-71
2022/03/04 08:49:37;;;;;;;28.27;16.30;;;7.10;93.40;;;;;;5015288;28;20030;-69
2022/03/04 08:52:04;;;;;;;29.33;16.25;;;7.30;93.30;;;;;;5001197;28;20026;-69
2022/03/04 08:54:30;;;;;;;38.20;17.45;;;7.50;93.10;;;;;;5002640;28;20072;-70
2022/03/04 08:56:56;;;;;;;27.35;16.52;;;7.50;92.80;;;;;;4998739;28;20041;-70
2022/03/04 08:59:23;;;;;;;35.45;16.33;;;7.60;93.00;;;;;;5009117;28;20026;-74
2022/03/04 09:01:49;;;;;;;33.90;16.20;;;7.70;92.40;;;;;;5009643;28;20057;-75
2022/03/04 09:04:17;;;;;;;28.13;15.43;;;7.90;92.50;;;;;;5006039;28;20426;-75
2022/03/04 09:06:43;;;;;;;26.52;15.63;;;8.10;91.90;;;;;;5008520;28;20572;-75
2022/03/04 09:09:09;;;;;;;25.48;14.45;;;8.10;92.10;;;;;;5001597;28;20402;-73
2022/03/04 09:11:36;;;;;;;23.38;14.77;;;8.10;91.40;;;;;;5005901;28;20026;-72
2022/03/04 09:14:02;;;;;;;27.35;15.50;;;8.00;91.60;;;;;;5008328;28;20950;-70
2022/03/04 09:16:29;;;;;;;25.50;14.73;;;7.90;90.70;;;;;;5011938;28;20054;-69
2022/03/04 09:18:55;;;;;;;26.17;15.77;;;8.20;91.10;;;;;;4997693;28;20030;-69
2022/03/04 09:21:21;;;;;;;26.65;14.68;;;8.40;91.10;;;;;;5008421;28;20026;-69
2022/03/04 09:23:46;;;;;;;28.88;14.25;;;8.50;90.10;;;;;;5009289;28;20478;-69
2022/03/04 09:26:12;;;;;;;23.25;14.40;;;8.50;90.10;;;;;;5002252;28;20038;-69
2022/03/04 09:28:38;;;;;;;23.15;14.63;;;8.60;90.20;;;;;;5006284;28;20034;-71
2022/03/04 09:31:04;;;;;;;24.08;14.27;;;8.80;91.00;;;;;;5010262;28;20462;-71
2022/03/04 09:33:30;;;;;;;25.80;13.80;;;9.10;90.20;;;;;;5007618;28;20018;-69
2022/03/04 09:35:56;;;;;;;23.20;14.75;;;9.40;90.30;;;;;;5008681;28;20583;-69
2022/03/04 09:38:21;;;;;;;28.10;13.27;;;9.20;87.50;;;;;;5008086;28;20014;-69
2022/03/04 09:40:50;;;;;;;21.55;13.77;;;9.40;88.50;;;;;;5011558;28;20025;-70
2022/03/04 09:43:18;;;;;;;20.50;13.57;;;9.50;87.90;;;;;;5006149;28;20037;-71
2022/03/04 09:45:49;;;;;;;26.33;13.60;;;9.70;87.00;;;;;;5007565;28;20526;-69
2022/03/04 09:48:16;;;;;;;24.13;14.13;;;9.60;85.90;;;;;;5014973;28;20033;-69
2022/03/04 09:50:45;;;;;;;22.77;13.30;;;9.60;86.40;;;;;;5015548;28;20118;-75
2022/03/04 09:53:11;;;;;;;22.90;14.00;;;9.70;86.40;;;;;;5011262;28;20101;-71
2022/03/04 09:55:39;;;;;;;25.90;13.77;;;9.80;87.20;;;;;;5005492;28;20086;-71
2022/03/04 09:58:12;;;;;;;26.20;13.95;;;9.90;85.90;;;;;;5005257;28;20027;-71
2022/03/04 10:00:43;;;;;;;22.52;13.82;;;9.80;86.10;;;;;;5010425;28;20042;-72
2022/03/04 10:03:28;;;;;;;24.83;14.73;;;9.80;85.60;;;;;;5005413;28;20049;-70
2022/03/04 10:05:55;;;;;;;22.30;13.70;;;9.90;85.00;;;;;;5003218;28;20133;-71
2022/03/04 10:08:22;;;;;;;27.45;13.25;;;9.80;84.60;;;;;;5013459;28;20075;-71
2022/03/04 10:10:53;;;;;;;23.20;13.75;;;9.80;84.30;;;;;;5012763;28;20038;-71
2022/03/04 10:13:49;;;;;;;22.35;13.70;;;10.10;83.90;;;;;;5006990;28;20030;-72
2022/03/04 10:16:24;;;;;;;22.40;13.52;;;10.40;83.40;;;;;;5011547;28;20034;-71
2022/03/04 10:19:09;;;;;;;20.65;13.88;;;10.80;84.40;;;;;;5009408;28;20108;-72
2022/03/04 10:21:55;;;;;;;27.65;14.95;;;10.70;83.90;;;;;;5010963;28;20057;-71
2022/03/04 10:24:35;;;;;;;27.50;13.82;;;10.70;83.60;;;;;;4999832;28;20030;-71
2022/03/04 10:27:07;;;;;;;23.73;14.40;;;11.00;84.80;;;;;;5014293;28;20133;-71
2022/03/04 10:29:35;;;;;;;21.65;14.00;;;11.30;83.90;;;;;;5008255;28;20030;-72
2022/03/04 10:32:19;;;;;;;23.85;14.80;;;11.70;83.00;;;;;;5009835;28;20056;-72
2022/03/04 10:34:59;;;;;;;25.92;15.02;;;11.70;81.50;;;;;;5009667;28;20065;-72
2022/03/04 10:37:54;;;;;;;23.90;13.38;;;12.20;81.60;;;;;;5012791;28;20825;-71
2022/03/04 10:40:21;;;;;;;27.88;14.88;;;11.70;79.60;;;;;;5007428;28;20391;-73
2022/03/04 10:43:00;;;;;;;39.28;15.68;;;11.70;81.50;;;;;;5009871;28;20061;-71
2022/03/04 10:45:31;;;;;;;26.30;14.18;;;11.90;81.90;;;;;;5013154;28;20100;-71
2022/03/04 10:48:02;;;;;;;31.92;15.55;;;12.20;78.50;;;;;;5013355;28;20490;-72
2022/03/04 10:50:34;;;;;;;27.40;14.30;;;12.20;79.70;;;;;;5006367;28;20486;-77
2022/03/04 10:53:07;;;;;;;22.25;15.13;;;12.40;79.00;;;;;;5007192;28;20058;-75
2022/03/04 10:55:46;;;;;;;27.80;15.15;;;13.00;80.00;;;;;;5005679;28;20030;-74
2022/03/04 10:58:19;;;;;;;23.48;14.27;;;13.50;80.20;;;;;;4997355;28;20026;-74
2022/03/04 11:00:50;;;;;;;21.70;14.68;;;14.10;81.00;;;;;;5006291;28;20030;-76
2022/03/04 11:03:34;;;;;;;26.73;15.20;;;14.10;78.40;;;;;;5011786;28;20466;-74
2022/03/04 11:06:05;;;;;;;22.88;14.77;;;14.20;76.30;;;;;;5011034;28;20042;-72
2022/03/04 11:08:31;;;;;;;24.30;14.53;;;14.00;76.10;;;;;;5013326;28;20058;-72
2022/03/04 11:10:58;;;;;;;25.63;15.20;;;14.60;79.50;;;;;;5001826;28;20076;-73
2022/03/04 11:13:24;;;;;;;24.65;14.68;;;15.50;75.90;;;;;;4999482;28;20050;-76
2022/03/04 11:15:52;;;;;;;25.63;14.07;;;16.00;76.90;;;;;;5005752;28;20065;-70
2022/03/04 11:18:20;;;;;;;24.63;15.10;;;15.80;73.10;;;;;;5002072;28;20375;-70
2022/03/04 11:20:48;;;;;;;23.38;15.18;;;15.80;75.20;;;;;;5003781;28;20091;-70
2022/03/04 11:23:31;;;;;;;28.77;14.20;;;15.90;74.30;;;;;;5005084;28;20467;-71
2022/03/04 11:25:59;;;;;;;24.00;14.80;;;15.90;71.80;;;;;;5002482;28;20038;-70
2022/03/04 11:28:40;;;;;;;25.90;14.45;;;16.10;73.00;;;;;;5004049;28;20033;-70
2022/03/04 11:31:08;;;;;;;23.05;14.32;;;16.40;72.10;;;;;;5001258;28;20039;-70
2022/03/04 11:33:52;;;;;;;31.48;14.48;;;16.40;72.70;;;;;;5005999;28;20550;-70
2022/03/04 11:36:20;;;;;;;24.75;15.05;;;16.90;74.10;;;;;;5007444;28;20501;-70
2022/03/04 11:38:46;;;;;;;25.70;15.77;;;17.40;71.50;;;;;;5004454;28;20022;-70
2022/03/04 11:41:16;;;;;;;22.13;15.20;;;16.90;69.50;;;;;;5000114;28;20472;-71
2022/03/04 11:43:46;;;;;;;23.65;16.23;;;17.10;70.30;;;;;;4993079;28;20034;-71
2022/03/04 11:46:43;;;;;;;27.42;16.52;;;17.50;70.70;;;;;;4996550;28;20042;-71
2022/03/04 11:49:33;;;;;;;24.15;16.05;;;18.20;69.60;;;;;;4998861;28;20801;-70
2022/03/04 11:52:12;;;;;;;26.55;14.70;;;17.40;69.80;;;;;;4988584;28;20050;-70
2022/03/04 11:55:06;;;;;;;25.98;16.20;;;17.10;69.80;;;;;;5010205;28;20030;-68
2022/03/04 11:57:44;;;;;;;24.95;14.80;;;17.30;70.30;;;;;;4995854;28;20022;-70
2022/03/04 12:00:10;;;;;;;25.30;17.05;;;17.80;68.50;;;;;;4989993;28;20120;-69
2022/03/04 12:02:40;;;;;;;23.00;16.52;;;18.10;68.90;;;;;;4995933;28;20034;-72
2022/03/04 12:05:32;;;;;;;23.30;15.88;;;18.40;70.10;;;;;;5012462;28;20057;-70
2022/03/04 12:07:59;;;;;;;26.42;16.80;;;18.50;69.20;;;;;;5011861;28;20079;-71
2022/03/04 12:10:40;;;;;;;25.15;16.08;;;18.90;68.00;;;;;;5012789;28;20480;-69
2022/03/04 12:13:21;;;;;;;27.77;16.70;;;18.90;68.90;;;;;;5027803;28;20162;-67
2022/03/04 12:16:00;;;;;;;22.08;15.75;;;19.40;66.70;;;;;;5012651;28;20585;-68
2022/03/04 12:18:41;;;;;;;21.80;15.35;;;19.20;66.80;;;;;;5012178;28;20394;-68
2022/03/04 12:21:13;;;;;;;24.27;15.93;;;19.10;66.70;;;;;;5012281;28;20394;-68
2022/03/04 12:23:42;;;;;;;26.42;17.15;;;18.60;66.70;;;;;;5012387;28;20040;-68
2022/03/04 12:26:26;;;;;;;24.25;16.63;;;18.20;65.90;;;;;;5027359;28;20042;-68
2022/03/04 12:29:00;;;;;;;25.80;16.95;;;18.70;67.00;;;;;;4993217;28;20023;-70
2022/03/04 12:31:29;;;;;;;24.85;16.63;;;19.20;65.40;;;;;;4993293;28;20377;-71
2022/03/04 12:33:57;;;;;;;27.63;17.48;;;18.60;66.30;;;;;;4993033;28;20495;-69
2022/03/04 12:36:28;;;;;;;23.80;17.20;;;19.20;67.20;;;;;;4993043;28;20092;-70
2022/03/04 12:38:59;;;;;;;27.42;17.48;;;20.30;65.60;;;;;;4993472;28;20081;-69
2022/03/04 12:41:32;;;;;;;25.88;16.63;;;20.90;64.00;;;;;;4992581;28;20091;-69
2022/03/04 12:44:03;;;;;;;21.17;16.25;;;21.00;64.20;;;;;;5008285;28;20038;-69